Flight Track Log - Related Links

Times and Time Zones

All times are in EDT time to prevent confusion due to time zone crossing. See the CPZ5830 flight status page for this flight to view local times or setup timezone preferences in your user account.


Time Position Orientation Groundspeed Altitude Reporting Facility
EDT Latitude Longitude Course Direction KTS MPH feet Rate Location/Type
Wed 10:20:33 AM 33.9500 -118.4333 287° West 159 183 1,100  Level Southern California TRACON
Wed 10:21:52 AM 33.9375 -118.5250 261° West 212 244 3,300 1,929 Climbing Los Angeles Center
Wed 10:22:53 AM 33.9317 -118.5986 265° West 255 293 5,600 2,976 Climbing Los Angeles Center
Wed 10:23:00 AM 34.0380 -118.7960 285° West  Level FlightAware Approximate
Wed 10:23:55 AM 33.9244 -118.7150 266° West 282 325 9,400  Level Los Angeles Center
Wed 10:24:00 AM 34.0674 -118.8934 296° West  Level FlightAware Approximate
Wed 10:24:57 AM 33.9208 -118.8189 268° West 306 352 11,200  Level Los Angeles Center
Wed 10:25:00 AM 34.0976 -118.9906 287° West  Level FlightAware Approximate
Wed 10:25:59 AM 33.9206 -118.9369 270° West 353 406 13,600  Level Los Angeles Center
Wed 10:27:01 AM 33.9803 -119.0397 305° West 382 440 16,000 1,951 Climbing Los Angeles Center
Wed 10:28:02 AM 34.0386 -119.1175 312° West 390 449 17,600 2,049 Climbing Los Angeles Center
Wed 10:29:04 AM 34.1272 -119.2400 311° West 403 464 20,200 2,177 Climbing Los Angeles Center
Wed 10:30:06 AM 34.2014 -119.3442 311° West 409 471 22,100 1,887 Climbing Los Angeles Center
Wed 10:31:08 AM 34.2925 -119.4714 311° West 417 480 24,100 1,645 Climbing Los Angeles Center
Wed 10:32:10 AM 34.3714 -119.5811 311° West 429 494 25,500 1,306 Climbing Los Angeles Center
Wed 10:33:12 AM 34.4519 -119.6947 311° West 442 509 26,800 1,317 Climbing Los Angeles Center
Wed 10:34:13 AM 34.5478 -119.8172 314° West 450 518 28,200 1,268 Climbing Los Angeles Center
Wed 10:35:15 AM 34.6461 -119.9197 319° Northwest 466 536 29,400 871 Climbing Los Angeles Center
Wed 10:36:17 AM 34.7417 -120.0244 318° Northwest 463 533 30,000 290 Climbing Los Angeles Center
Wed 10:37:19 AM 34.8339 -120.1242 318° Northwest 469 540 30,000  Level Los Angeles Center
Wed 10:38:21 AM 34.9294 -120.2300 318° Northwest 469 540 30,000  Level Los Angeles Center
Wed 10:39:22 AM 35.0439 -120.3567 318° Northwest 469 540 30,000  Level Los Angeles Center
Wed 10:40:24 AM 35.1386 -120.4622 318° Northwest 466 536 30,000  Level Los Angeles Center
Wed 10:41:26 AM 35.2344 -120.5675 318° Northwest 469 540 30,000  Level Los Angeles Center
Wed 10:42:28 AM 35.3306 -120.6750 318° Northwest 472 543 30,000  Level Los Angeles Center
Wed 10:43:30 AM 35.4356 -120.7700 324° Northwest 470 541 30,000  Level Los Angeles Center
Wed 10:44:31 AM 35.5411 -120.8639 324° Northwest 468 539 30,000  Level Los Angeles Center
Wed 10:45:33 AM 35.6639 -120.9747 324° Northwest 468 539 30,000  Level Los Angeles Center
Wed 10:46:08 AM 35.7289 -121.0317 325° Northwest 469 540 30,000  Level Oakland Center
Wed 10:47:09 AM 35.8342 -121.1258 324° Northwest 467 537 30,000  Level Oakland Center
Wed 10:48:10 AM 35.9394 -121.2200 324° Northwest 467 537 30,000  Level Oakland Center
Wed 10:49:11 AM 36.0439 -121.3147 324° Northwest 467 537 30,000  Level Oakland Center
Wed 10:50:12 AM 36.1489 -121.4117 323° Northwest 468 539 30,000  Level Oakland Center
Wed 10:51:14 AM 36.2536 -121.5064 324° Northwest 467 537 30,000 -1,073 Level Oakland Center
Wed 10:52:15 AM 36.3586 -121.5992 325° Northwest 464 534 27,800 -2,361 Descending Oakland Center
Wed 10:53:16 AM 36.4583 -121.6936 323° Northwest 455 524 25,200 -2,712 Descending Oakland Center
Wed 10:53:59 AM 36.5333 -121.7667 322° Northwest 437 503 23,100 -2,680 Descending Northern Cal TRACON
Wed 10:54:59 AM 36.6333 -121.8500 326° Northwest 415 478 20,600 -2,400 Descending Northern Cal TRACON
Wed 10:55:59 AM 36.7167 -121.9333 321° Northwest 401 461 18,300 -2,300 Descending Northern Cal TRACON
Wed 10:56:59 AM 36.8333 -121.9833 341° North 406 467 16,000 -2,348 Descending Northern Cal TRACON
Wed 10:57:54 AM 36.9333 -122.0167 345° North 394 453 13,800 -2,316 Descending Northern Cal TRACON
Wed 10:58:53 AM 37.0167 -122.0667 334° Northwest 377 434 11,600 -1,867 Descending Northern Cal TRACON
Wed 10:59:24 AM 37.0344 -122.1164 294° West 370 426 11,000 -1,239 Descending Oakland Center
Wed 11:00:25 AM 37.0803 -122.2100 302° West 332 382 9,700 -1,230 Descending Oakland Center
Wed 11:01:26 AM 37.1528 -122.2606 331° Northwest 305 351 8,500 -885 Descending Oakland Center
Wed 11:02:27 AM 37.2169 -122.3069 330° Northwest 277 319 7,900 -738 Descending Oakland Center
Wed 11:03:28 AM 37.2869 -122.3233 349° North 260 299 7,000 -732 Descending Oakland Center
Wed 11:04:30 AM 37.3475 -122.2728 34° Northeast 236 272 6,400 -780 Descending Oakland Center
Wed 11:05:31 AM 37.3839 -122.2131 53° Northeast 221 254 5,400 -934 Descending Oakland Center
Wed 11:06:32 AM 37.4186 -122.1556 53° Northeast 210 242 4,500 -689 Descending Oakland Center
Wed 11:07:33 AM 37.4506 -122.1011 54° Northeast 200 230 4,000 -246 Descending Oakland Center
Wed 11:08:34 AM 37.4992 -122.1136 348° North 195 224 4,000 -293 Level Oakland Center
Wed 11:09:36 AM 37.5303 -122.1603 310° West 188 216 3,400 -683 Descending Oakland Center
Wed 11:10:37 AM 37.5500 -122.2078 298° West 167 192 2,600 -738 Descending Oakland Center
Wed 11:11:38 AM 37.5689 -122.2528 298° West 154 177 1,900 -738 Descending Oakland Center
Wed 11:12:39 AM 37.5878 -122.2967 299° West 147 169 1,100 -683 Descending Oakland Center
Wed 11:13:41 AM 37.6025 -122.3317 298° West 131 151 500 -581 Descending Oakland Center

Login

Don't have an account? Register now (free) for customized features, flight alerts, and more!